createdAt,value
2019-05-28T00:00:30.602Z,10.70
2019-05-28T00:02:57.219Z,10.57
2019-05-28T00:05:23.741Z,10.20
2019-05-28T00:07:50.280Z,10.20
2019-05-28T00:10:17.175Z,10.60
2019-05-28T00:12:43.766Z,11.00
2019-05-28T00:15:11.846Z,10.87
2019-05-28T00:17:38.351Z,10.80
2019-05-28T00:20:06.747Z,10.30
2019-05-28T00:22:33.973Z,11.00
2019-05-28T00:25:00.600Z,10.90
2019-05-28T00:27:27.002Z,10.77
2019-05-28T00:29:53.427Z,11.40
2019-05-28T00:32:20.587Z,10.07
2019-05-28T00:34:47.417Z,11.37
2019-05-28T00:37:13.863Z,10.70
2019-05-28T00:39:40.469Z,10.70
2019-05-28T00:42:07.072Z,11.13
2019-05-28T00:44:33.617Z,11.07
2019-05-28T00:47:00.233Z,11.23
2019-05-28T00:49:26.839Z,11.83
2019-05-28T00:51:53.585Z,11.90
2019-05-28T00:54:20.205Z,11.53
2019-05-28T00:56:48.484Z,11.65
2019-05-28T00:59:17.055Z,11.57
2019-05-28T01:01:43.586Z,12.10
2019-05-28T01:04:10.107Z,11.73
2019-05-28T01:06:36.527Z,12.20
2019-05-28T01:09:05.746Z,12.13
2019-05-28T01:11:32.348Z,12.15
2019-05-28T01:13:58.747Z,12.47
2019-05-28T01:16:25.159Z,12.90
2019-05-28T01:18:51.718Z,12.93
2019-05-28T01:21:18.300Z,11.90
2019-05-28T01:23:44.687Z,12.93
2019-05-28T01:26:11.333Z,13.03
2019-05-28T01:28:37.746Z,13.18
2019-05-28T01:31:04.170Z,12.70
2019-05-28T01:33:30.729Z,13.10
2019-05-28T01:35:57.259Z,13.40
2019-05-28T01:38:24.263Z,13.07
2019-05-28T01:40:50.825Z,12.80
2019-05-28T01:43:17.265Z,13.20
2019-05-28T01:45:43.677Z,13.55
2019-05-28T01:48:10.134Z,13.63
2019-05-28T01:50:37.029Z,13.83
2019-05-28T01:53:03.420Z,14.25
2019-05-28T01:55:29.974Z,13.75
2019-05-28T01:57:56.382Z,13.77
2019-05-28T02:00:23.034Z,13.75
2019-05-28T02:02:49.625Z,13.83
2019-05-28T02:05:16.312Z,14.73
2019-05-28T02:07:42.773Z,14.33
2019-05-28T02:10:09.671Z,14.03
2019-05-28T02:12:37.039Z,13.70
2019-05-28T02:15:08.138Z,14.68
2019-05-28T02:17:34.631Z,14.23
2019-05-28T02:20:01.255Z,14.63
2019-05-28T02:22:27.802Z,14.33
2019-05-28T02:24:54.298Z,14.63
2019-05-28T02:27:20.703Z,14.33
2019-05-28T02:29:47.156Z,14.50
2019-05-28T02:32:13.664Z,15.23
2019-05-28T02:34:40.398Z,15.40
2019-05-28T02:37:07.050Z,15.63
2019-05-28T02:39:33.589Z,16.13
2019-05-28T02:42:00.636Z,15.88
2019-05-28T02:44:27.056Z,16.77
2019-05-28T02:46:53.947Z,16.05
2019-05-28T02:49:20.483Z,16.73
2019-05-28T02:51:47.082Z,18.93
2019-05-28T02:54:13.677Z,19.33
2019-05-28T02:56:41.835Z,19.73
2019-05-28T02:59:12.030Z,20.10
2019-05-28T03:01:44.361Z,20.97
2019-05-28T03:04:08.192Z,21.37
2019-05-28T03:06:36.596Z,22.30
2019-05-28T03:09:05.600Z,20.60
2019-05-28T03:11:32.222Z,20.77
2019-05-28T03:13:59.397Z,18.93
2019-05-28T03:16:28.598Z,20.12
2019-05-28T03:18:57.819Z,20.03
2019-05-28T03:21:26.827Z,19.98
2019-05-28T03:23:57.419Z,19.03
2019-05-28T03:26:24.024Z,18.75
2019-05-28T03:28:50.623Z,18.37
2019-05-28T03:31:17.182Z,19.07
2019-05-28T03:33:43.785Z,19.33
2019-05-28T03:36:12.773Z,19.90
2019-05-28T03:38:40.447Z,20.53
2019-05-28T03:41:06.936Z,20.33
2019-05-28T03:43:33.447Z,22.23
2019-05-28T03:46:00.096Z,20.43
2019-05-28T03:48:27.000Z,21.30
2019-05-28T03:50:53.486Z,21.93
2019-05-28T03:53:20.060Z,20.92
2019-05-28T03:55:46.650Z,21.30
2019-05-28T03:58:13.642Z,20.97
2019-05-28T04:00:40.308Z,21.17
2019-05-28T04:03:06.911Z,21.73
2019-05-28T04:05:33.511Z,22.10
2019-05-28T04:08:00.074Z,22.03
2019-05-28T04:10:27.164Z,22.87
2019-05-28T04:12:53.544Z,23.20
2019-05-28T04:15:20.213Z,22.40
2019-05-28T04:17:46.723Z,22.20
2019-05-28T04:20:14.031Z,55.70
2019-05-28T04:22:40.590Z,34.57
2019-05-28T04:25:07.594Z,22.80
2019-05-28T04:27:34.174Z,22.90
2019-05-28T04:30:01.106Z,21.40
2019-05-28T04:32:39.870Z,22.53
2019-05-28T04:34:56.135Z,22.03
2019-05-28T04:37:22.538Z,22.90
2019-05-28T04:39:49.494Z,21.50
2019-05-28T04:42:16.493Z,23.20
2019-05-28T04:44:43.483Z,22.60
2019-05-28T04:47:09.904Z,22.17
2019-05-28T04:49:36.440Z,22.60
2019-05-28T04:52:03.038Z,21.13
2019-05-28T04:54:29.426Z,25.03
2019-05-28T04:56:55.989Z,23.90
2019-05-28T04:59:22.403Z,23.50
2019-05-28T05:01:49.364Z,23.20
2019-05-28T05:04:15.888Z,23.42
2019-05-28T05:06:42.274Z,22.97
2019-05-28T05:09:08.725Z,22.95
2019-05-28T05:11:35.131Z,22.27
2019-05-28T05:14:01.633Z,23.20
2019-05-28T05:16:28.620Z,22.43
2019-05-28T05:18:55.237Z,23.20
2019-05-28T05:21:21.631Z,22.73
2019-05-28T05:23:48.087Z,23.63
2019-05-28T05:26:14.493Z,25.10
2019-05-28T05:28:40.982Z,25.08
2019-05-28T05:31:07.553Z,26.68
2019-05-28T05:33:33.954Z,26.15
2019-05-28T05:36:00.454Z,29.23
2019-05-28T05:38:27.430Z,31.17
2019-05-28T05:40:53.910Z,31.07
2019-05-28T05:43:20.515Z,29.77
2019-05-28T05:45:46.965Z,31.20
2019-05-28T05:48:13.485Z,32.63
2019-05-28T05:50:40.004Z,32.37
2019-05-28T05:53:06.651Z,30.92
2019-05-28T05:55:33.061Z,31.52
2019-05-28T05:57:59.550Z,32.30
2019-05-28T06:00:26.092Z,33.63
2019-05-28T06:02:52.509Z,32.88
2019-05-28T06:05:21.137Z,34.65
2019-05-28T06:07:47.717Z,30.43
2019-05-28T06:10:14.916Z,32.65
2019-05-28T06:12:41.366Z,27.30
2019-05-28T06:15:07.869Z,27.15
2019-05-28T06:17:34.594Z,27.00
2019-05-28T06:20:01.547Z,25.87
2019-05-28T06:22:28.155Z,25.30
2019-05-28T06:24:54.595Z,25.67
2019-05-28T06:27:20.981Z,24.37
2019-05-28T06:29:47.422Z,23.70
2019-05-28T06:32:13.976Z,22.95
2019-05-28T06:34:40.586Z,23.30
2019-05-28T06:37:07.005Z,22.77
2019-05-28T06:39:33.681Z,23.83
2019-05-28T06:42:00.304Z,24.98
2019-05-28T06:44:26.759Z,24.00
2019-05-28T06:46:53.305Z,25.37
2019-05-28T06:49:19.933Z,23.87
2019-05-28T06:51:46.413Z,23.43
2019-05-28T06:54:12.919Z,23.85
2019-05-28T06:56:39.459Z,26.10
2019-05-28T06:59:06.004Z,25.97
2019-05-28T07:01:32.622Z,25.88
2019-05-28T07:04:12.703Z,25.65
2019-05-28T07:06:27.533Z,25.93
2019-05-28T07:08:54.043Z,25.93
2019-05-28T07:11:20.535Z,28.95
2019-05-28T07:13:47.079Z,28.45
2019-05-28T07:16:13.693Z,27.60
2019-05-28T07:18:40.211Z,28.43
2019-05-28T07:21:06.909Z,27.73
2019-05-28T07:23:33.532Z,28.92
2019-05-28T07:25:59.915Z,29.03
2019-05-28T07:28:26.394Z,29.15
2019-05-28T07:30:52.931Z,29.77
2019-05-28T07:33:19.319Z,29.95
2019-05-28T07:35:46.520Z,32.60
2019-05-28T07:38:13.332Z,31.68
2019-05-28T07:40:40.353Z,31.27
2019-05-28T07:43:06.753Z,33.75
2019-05-28T07:45:33.294Z,32.45
2019-05-28T07:47:59.884Z,33.38
2019-05-28T07:50:26.396Z,34.30
2019-05-28T07:52:53.325Z,34.53
2019-05-28T07:55:19.892Z,33.60
2019-05-28T07:57:46.392Z,33.65
2019-05-28T08:00:13.792Z,34.10
2019-05-28T08:02:40.470Z,33.77
2019-05-28T08:05:07.761Z,33.08
2019-05-28T08:07:34.168Z,31.52
2019-05-28T08:10:00.687Z,32.35
2019-05-28T08:12:27.191Z,31.23
2019-05-28T08:14:58.925Z,32.87
2019-05-28T08:17:25.351Z,31.43
2019-05-28T08:19:52.274Z,31.10
2019-05-28T08:22:18.961Z,31.90
2019-05-28T08:24:45.489Z,30.82
2019-05-28T08:27:11.882Z,31.20
2019-05-28T08:29:38.537Z,30.82
2019-05-28T08:32:05.506Z,27.93
2019-05-28T08:34:32.000Z,30.57
2019-05-28T08:37:05.883Z,29.37
2019-05-28T08:39:27.147Z,29.23
2019-05-28T08:41:55.008Z,29.67
2019-05-28T08:44:22.118Z,29.92
2019-05-28T08:46:48.757Z,31.45
2019-05-28T08:49:15.265Z,37.33
2019-05-28T08:51:41.661Z,43.08
2019-05-28T08:54:08.219Z,43.17
2019-05-28T08:56:34.803Z,36.00
2019-05-28T08:59:01.379Z,31.15
2019-05-28T09:01:28.590Z,28.77
2019-05-28T09:03:55.244Z,27.53
2019-05-28T09:06:24.540Z,27.00
2019-05-28T09:08:49.954Z,26.68
2019-05-28T09:11:16.479Z,28.87
2019-05-28T09:13:42.910Z,27.40
2019-05-28T09:16:09.422Z,28.53
2019-05-28T09:18:35.861Z,26.77
2019-05-28T09:21:02.536Z,26.83
2019-05-28T09:23:29.138Z,27.20
2019-05-28T09:25:55.704Z,25.90
2019-05-28T09:28:30.273Z,26.65
2019-05-28T09:30:50.418Z,27.85
2019-05-28T09:33:16.997Z,26.33
2019-05-28T09:35:50.544Z,27.07
2019-05-28T09:38:11.935Z,27.07
2019-05-28T09:40:50.227Z,27.47
2019-05-28T09:43:06.935Z,28.47
2019-05-28T09:45:33.443Z,28.20
2019-05-28T09:47:59.871Z,28.93
2019-05-28T09:50:31.238Z,29.65
2019-05-28T09:52:55.594Z,29.27
2019-05-28T09:55:22.666Z,28.70
2019-05-28T09:57:49.271Z,27.47
2019-05-28T10:00:20.832Z,29.47
2019-05-28T10:02:47.629Z,30.13
2019-05-28T10:05:15.330Z,28.40
2019-05-28T10:07:41.779Z,29.90
2019-05-28T10:10:08.416Z,30.50
2019-05-28T10:12:34.931Z,32.90
2019-05-28T10:15:03.678Z,33.30
2019-05-28T10:17:30.534Z,34.03
2019-05-28T10:19:57.031Z,34.83
2019-05-28T10:22:23.493Z,36.27
2019-05-28T10:24:50.002Z,36.00
2019-05-28T10:27:16.514Z,37.70
2019-05-28T10:29:42.965Z,38.27
2019-05-28T10:32:09.563Z,34.80
2019-05-28T10:34:36.160Z,37.20
2019-05-28T10:37:02.817Z,31.27
2019-05-28T10:39:29.331Z,34.03
2019-05-28T10:41:55.871Z,33.17
2019-05-28T10:44:22.552Z,30.60
2019-05-28T10:46:48.994Z,30.47
2019-05-28T10:49:15.414Z,31.73
2019-05-28T10:51:42.006Z,33.85
2019-05-28T10:54:08.508Z,32.40
2019-05-28T10:56:35.148Z,34.03
2019-05-28T10:59:01.663Z,30.13
2019-05-28T11:01:28.236Z,32.67
2019-05-28T11:03:55.189Z,32.27
2019-05-28T11:06:21.987Z,33.37
2019-05-28T11:08:48.914Z,31.50
2019-05-28T11:11:15.438Z,30.85
2019-05-28T11:13:52.681Z,29.80
2019-05-28T11:16:10.334Z,33.23
2019-05-28T11:18:37.011Z,37.33
2019-05-28T11:21:09.101Z,35.80
2019-05-28T11:23:32.772Z,37.17
2019-05-28T11:25:59.416Z,34.60
2019-05-28T11:28:26.281Z,33.13
2019-05-28T11:30:52.916Z,33.80
2019-05-28T11:33:19.523Z,35.47
2019-05-28T11:35:46.258Z,34.57
2019-05-28T11:38:13.465Z,33.27
2019-05-28T11:40:40.080Z,34.05
2019-05-28T11:43:07.467Z,31.07
2019-05-28T11:45:34.085Z,32.38
2019-05-28T11:48:00.872Z,33.70
2019-05-28T11:50:27.642Z,34.35
2019-05-28T11:52:56.096Z,34.17
2019-05-28T11:55:22.919Z,33.47
2019-05-28T11:57:49.823Z,30.00
2019-05-28T12:00:16.838Z,32.50
2019-05-28T12:02:43.487Z,32.73
2019-05-28T12:05:12.730Z,31.17
2019-05-28T12:07:39.530Z,30.25
2019-05-28T12:10:07.315Z,30.88
2019-05-28T12:12:36.209Z,30.32
2019-05-28T12:15:08.602Z,31.97
2019-05-28T12:17:42.703Z,33.02
2019-05-28T12:20:05.488Z,33.60
2019-05-28T12:22:35.172Z,36.00
2019-05-28T12:25:02.506Z,36.90
2019-05-28T12:27:29.815Z,37.60
2019-05-28T12:29:56.454Z,38.45
2019-05-28T12:32:23.253Z,37.90
2019-05-28T12:34:49.915Z,37.88
2019-05-28T12:37:16.428Z,39.10
2019-05-28T12:39:42.845Z,40.23
2019-05-28T12:42:09.498Z,38.88
2019-05-28T12:44:42.307Z,40.88
2019-05-28T12:47:05.144Z,41.87
2019-05-28T12:49:32.236Z,43.33
2019-05-28T12:51:58.738Z,42.35
2019-05-28T12:54:25.319Z,43.17
2019-05-28T12:56:52.314Z,43.68
2019-05-28T12:59:18.792Z,43.92
2019-05-28T13:01:45.338Z,43.92
2019-05-28T13:04:12.283Z,43.08
2019-05-28T13:06:39.499Z,42.62
2019-05-28T13:09:07.605Z,41.67
2019-05-28T13:11:34.735Z,39.25
2019-05-28T13:14:01.131Z,31.07
2019-05-28T13:16:27.726Z,29.53
2019-05-28T13:18:54.212Z,30.73
2019-05-28T13:21:21.250Z,32.30
2019-05-28T13:23:47.986Z,32.27
2019-05-28T13:26:15.201Z,29.53
2019-05-28T13:28:41.861Z,31.57
2019-05-28T13:31:08.703Z,33.07
2019-05-28T13:33:35.165Z,32.33
2019-05-28T13:36:02.159Z,33.83
2019-05-28T13:38:28.719Z,35.50
2019-05-28T13:40:55.216Z,32.47
2019-05-28T13:43:21.831Z,34.03
2019-05-28T13:45:48.558Z,32.43
2019-05-28T13:48:15.540Z,31.73
2019-05-28T13:50:42.067Z,34.70
2019-05-28T13:53:08.632Z,34.07
2019-05-28T13:55:35.125Z,34.37
2019-05-28T13:58:01.647Z,33.90
2019-05-28T14:00:28.909Z,33.40
2019-05-28T14:02:55.572Z,33.57
2019-05-28T14:05:22.139Z,34.70
2019-05-28T14:07:48.671Z,32.80
2019-05-28T14:10:16.639Z,41.90
2019-05-28T14:12:43.152Z,33.03
2019-05-28T14:15:10.456Z,37.00
2019-05-28T14:17:39.336Z,28.50
2019-05-28T14:20:07.392Z,28.53
2019-05-28T14:22:35.396Z,27.87
2019-05-28T14:25:02.105Z,27.73
2019-05-28T14:27:28.574Z,26.40
2019-05-28T14:29:55.213Z,25.77
2019-05-28T14:32:21.775Z,25.70
2019-05-28T14:34:52.277Z,26.43
2019-05-28T14:37:16.609Z,24.73
2019-05-28T14:39:44.094Z,25.43
2019-05-28T14:42:10.611Z,24.70
2019-05-28T14:44:37.223Z,24.20
2019-05-28T14:47:04.927Z,23.73
2019-05-28T14:49:31.973Z,24.57
2019-05-28T14:51:58.949Z,23.93
2019-05-28T14:54:25.462Z,25.20
2019-05-28T14:56:51.855Z,24.43
2019-05-28T14:59:18.326Z,23.10
2019-05-28T15:01:45.350Z,23.57
2019-05-28T15:04:11.889Z,22.00
2019-05-28T15:06:38.405Z,22.10
2019-05-28T15:09:20.224Z,23.97
2019-05-28T15:11:35.954Z,21.57
2019-05-28T15:14:04.114Z,23.13
2019-05-28T15:16:30.634Z,22.23
2019-05-28T15:18:57.159Z,22.60
2019-05-28T15:21:25.532Z,22.30
2019-05-28T15:23:52.321Z,22.23
2019-05-28T15:26:18.743Z,22.10
2019-05-28T15:28:45.301Z,21.70
2019-05-28T15:31:12.386Z,23.00
2019-05-28T15:33:38.883Z,21.93
2019-05-28T15:36:05.549Z,22.03
2019-05-28T15:38:32.167Z,21.80
2019-05-28T15:40:58.778Z,22.00
2019-05-28T15:43:25.321Z,21.53
2019-05-28T15:45:53.398Z,22.20
2019-05-28T15:48:21.079Z,21.30
2019-05-28T15:50:47.545Z,21.63
2019-05-28T15:53:14.042Z,20.60
2019-05-28T15:55:40.700Z,22.17
2019-05-28T15:58:07.345Z,22.73
2019-05-28T16:00:34.092Z,36.83
2019-05-28T16:03:00.442Z,23.60
2019-05-28T16:05:26.981Z,22.20
2019-05-28T16:07:53.836Z,21.07
2019-05-28T16:10:21.103Z,21.70
2019-05-28T16:12:48.192Z,21.63
2019-05-28T16:15:15.195Z,21.27
2019-05-28T16:20:16.244Z,19.83
2019-05-28T16:22:42.644Z,18.50
2019-05-28T16:25:10.099Z,16.37
2019-05-28T16:27:36.709Z,17.03
2019-05-28T16:30:06.413Z,16.47
2019-05-28T16:32:33.055Z,16.40
2019-05-28T16:35:01.323Z,15.53
2019-05-28T16:37:27.772Z,15.07
2019-05-28T16:39:54.335Z,14.50
2019-05-28T16:42:21.293Z,13.70
2019-05-28T16:44:47.951Z,13.20
2019-05-28T16:47:18.058Z,13.60
2019-05-28T16:49:43.062Z,11.97
2019-05-28T16:52:09.582Z,12.70
2019-05-28T16:54:36.139Z,12.00
2019-05-28T16:57:03.118Z,13.27
2019-05-28T16:59:29.805Z,13.90
2019-05-28T17:01:56.270Z,15.03
2019-05-28T17:04:22.906Z,14.40
2019-05-28T17:06:49.500Z,15.33
2019-05-28T17:09:16.141Z,15.07
2019-05-28T17:11:42.671Z,14.80
2019-05-28T17:14:09.167Z,15.60
2019-05-28T17:16:35.610Z,29.47
2019-05-28T17:19:03.078Z,30.43
2019-05-28T17:21:29.727Z,18.73
2019-05-28T17:23:56.128Z,14.67
2019-05-28T17:26:22.541Z,14.93
2019-05-28T17:28:48.990Z,14.20
2019-05-28T17:31:15.669Z,15.13
2019-05-28T17:33:42.146Z,14.13
2019-05-28T17:36:08.611Z,12.60
2019-05-28T17:38:35.127Z,13.27
2019-05-28T17:41:01.628Z,11.83
2019-05-28T17:43:29.632Z,13.23
2019-05-28T17:45:57.512Z,13.97
2019-05-28T17:48:23.929Z,13.20
2019-05-28T17:50:53.154Z,13.67
2019-05-28T17:53:19.509Z,14.53
2019-05-28T17:55:46.458Z,13.07
2019-05-28T17:58:14.561Z,13.13
2019-05-28T18:00:46.601Z,14.37
2019-05-28T18:03:13.224Z,14.13
2019-05-28T18:05:39.880Z,17.70
2019-05-28T18:08:06.484Z,19.13
2019-05-28T18:10:33.074Z,15.60
2019-05-28T18:12:59.474Z,15.13
2019-05-28T18:15:26.153Z,14.37
2019-05-28T18:17:52.757Z,15.20
2019-05-28T18:20:19.905Z,16.50
2019-05-28T18:22:46.496Z,15.17
2019-05-28T18:25:13.927Z,15.57
2019-05-28T18:27:40.867Z,16.27
2019-05-28T18:30:09.931Z,15.37
2019-05-28T18:32:36.856Z,15.30
2019-05-28T18:35:07.352Z,13.93
2019-05-28T18:37:33.892Z,13.80
2019-05-28T18:40:01.553Z,14.57
2019-05-28T18:42:29.868Z,13.50
2019-05-28T18:44:56.783Z,14.50
2019-05-28T18:47:23.368Z,13.97
2019-05-28T18:49:49.895Z,12.77
2019-05-28T18:52:17.058Z,13.13
2019-05-28T18:54:45.471Z,13.13
2019-05-28T18:57:15.285Z,14.60
2019-05-28T18:59:42.120Z,36.47
2019-05-28T19:02:09.087Z,36.10
2019-05-28T19:04:35.494Z,12.23
2019-05-28T19:07:02.089Z,12.37
2019-05-28T19:09:28.830Z,12.27
2019-05-28T19:11:55.836Z,12.20
2019-05-28T19:14:22.290Z,11.70
2019-05-28T19:16:48.686Z,11.43
2019-05-28T19:19:15.125Z,11.50
2019-05-28T19:21:41.720Z,12.37
2019-05-28T19:24:08.118Z,10.70
2019-05-28T19:26:34.736Z,12.53
2019-05-28T19:29:01.497Z,12.20
2019-05-28T19:31:28.425Z,11.10
2019-05-28T19:33:54.944Z,11.53
2019-05-28T19:36:22.122Z,12.50
2019-05-28T19:38:49.118Z,13.03
2019-05-28T19:41:15.638Z,11.50
2019-05-28T19:43:42.299Z,11.70
2019-05-28T19:46:08.807Z,11.80
2019-05-28T19:48:35.200Z,11.40
2019-05-28T19:51:01.994Z,11.17
2019-05-28T19:53:28.670Z,11.17
2019-05-28T19:55:55.175Z,12.20
2019-05-28T19:58:23.443Z,11.40
2019-05-28T20:00:50.042Z,11.67
2019-05-28T20:03:16.556Z,12.27
2019-05-28T20:05:43.109Z,12.73
2019-05-28T20:08:09.609Z,11.77
2019-05-28T20:10:36.238Z,12.07
2019-05-28T20:13:02.954Z,12.67
2019-05-28T20:15:29.677Z,13.67
2019-05-28T20:17:56.699Z,12.67
2019-05-28T20:20:23.608Z,12.10
2019-05-28T20:22:50.222Z,21.57
2019-05-28T20:25:17.529Z,12.00
2019-05-28T20:27:45.715Z,12.07
2019-05-28T20:30:16.186Z,12.13
2019-05-28T20:32:42.924Z,12.90
2019-05-28T20:35:11.812Z,12.87
2019-05-28T20:37:38.361Z,12.97
2019-05-28T20:40:06.067Z,12.63
2019-05-28T20:42:35.687Z,12.37
2019-05-28T20:45:02.353Z,13.10
2019-05-28T20:47:29.141Z,13.00
2019-05-28T20:49:55.757Z,13.07
2019-05-28T20:52:22.891Z,13.13
2019-05-28T20:54:49.411Z,13.30
2019-05-28T20:57:15.923Z,13.50
2019-05-28T20:59:42.776Z,13.20
2019-05-28T21:02:09.749Z,13.63
2019-05-28T21:04:37.113Z,12.87
2019-05-28T21:07:05.009Z,13.93
2019-05-28T21:09:31.905Z,13.33
2019-05-28T21:12:00.267Z,13.97
2019-05-28T21:14:26.686Z,13.70
2019-05-28T21:16:53.292Z,14.30
2019-05-28T21:19:19.854Z,13.93
2019-05-28T21:21:46.556Z,14.97
2019-05-28T21:24:13.055Z,14.30
2019-05-28T21:26:39.590Z,14.40
2019-05-28T21:29:06.109Z,13.87
2019-05-28T21:31:32.695Z,13.47
2019-05-28T21:33:59.153Z,14.27
2019-05-28T21:36:25.602Z,14.37
2019-05-28T21:38:53.115Z,15.30
2019-05-28T21:41:20.074Z,14.27
2019-05-28T21:43:46.668Z,14.10
2019-05-28T21:46:14.275Z,14.23
2019-05-28T21:48:40.845Z,14.70
2019-05-28T21:51:07.469Z,14.33
2019-05-28T21:53:34.016Z,14.87
2019-05-28T21:56:01.437Z,14.43
2019-05-28T21:58:27.976Z,13.17
2019-05-28T22:01:02.022Z,13.77
2019-05-28T22:03:29.126Z,13.50
2019-05-28T22:05:55.776Z,13.90
2019-05-28T22:08:22.376Z,13.60
2019-05-28T22:10:48.892Z,13.53
2019-05-28T22:13:21.898Z,14.07
2019-05-28T22:15:43.978Z,13.97
2019-05-28T22:18:11.698Z,14.10
2019-05-28T22:20:38.233Z,13.27
2019-05-28T22:23:04.924Z,13.20
2019-05-28T22:25:31.537Z,12.67
2019-05-28T22:27:58.518Z,13.13
2019-05-28T22:30:26.011Z,12.60
2019-05-28T22:32:52.613Z,12.77
2019-05-28T22:35:19.565Z,12.00
2019-05-28T22:37:45.973Z,11.90
2019-05-28T22:40:13.187Z,12.27
2019-05-28T22:42:39.710Z,12.53
2019-05-28T22:45:07.214Z,13.27
2019-05-28T22:47:33.784Z,12.87
2019-05-28T22:50:18.303Z,12.23
2019-05-28T22:52:29.092Z,10.87
2019-05-28T22:54:55.525Z,12.40
2019-05-28T22:57:23.887Z,11.90
2019-05-28T22:59:51.286Z,12.53
2019-05-28T23:02:17.900Z,12.43
2019-05-28T23:04:46.232Z,11.30
2019-05-28T23:07:12.755Z,11.80
2019-05-28T23:09:39.161Z,12.53
2019-05-28T23:12:06.407Z,12.13
2019-05-28T23:14:34.391Z,11.90
2019-05-28T23:17:02.211Z,11.80
2019-05-28T23:19:28.975Z,11.70
2019-05-28T23:21:55.529Z,11.43
2019-05-28T23:24:21.949Z,11.77
2019-05-28T23:26:50.344Z,10.97
2019-05-28T23:29:17.436Z,10.90
2019-05-28T23:31:43.932Z,10.83
2019-05-28T23:34:11.098Z,10.67
2019-05-28T23:36:37.548Z,11.40
2019-05-28T23:39:05.551Z,10.77
2019-05-28T23:41:32.013Z,10.77
2019-05-28T23:44:01.896Z,11.00
2019-05-28T23:46:26.741Z,10.93
2019-05-28T23:48:53.175Z,10.70
2019-05-28T23:51:20.491Z,11.13
2019-05-28T23:53:47.167Z,10.23
2019-05-28T23:56:13.901Z,10.80
2019-05-28T23:58:40.714Z,10.57
